Time;durP1;ratioP1;P1;durP2;ratioP2;P2;SDS_P1;SDS_P2;PMS_P1;PMS_P2;Temp;Humidity;BMP_temperature;BMP_pressure;BME280_temperature;BME280_humidity;BME280_pressure;Samples;Min_cycle;Max_cycle;Signal;HPM_P1;HPM_P2
2021/10/10 00:00:03;;;;;;;15.00;12.63;;;8.70;99.90;;;;;;2087651;28;20139;-68
2021/10/10 00:01:05;;;;;;;16.52;13.45;;;8.70;99.90;;;;;;2087893;28;20469;-68
2021/10/10 00:02:05;;;;;;;16.50;13.38;;;8.70;99.90;;;;;;2080892;28;20440;-68
2021/10/10 00:03:06;;;;;;;17.90;14.10;;;8.70;99.90;;;;;;2084496;28;20025;-68
2021/10/10 00:04:06;;;;;;;16.08;13.65;;;8.70;99.90;;;;;;2087691;28;20095;-68
2021/10/10 00:05:07;;;;;;;15.00;13.23;;;8.70;99.90;;;;;;2084504;28;20026;-68
2021/10/10 00:06:08;;;;;;;15.60;13.13;;;8.70;99.90;;;;;;2087413;28;20117;-68
2021/10/10 00:07:09;;;;;;;18.30;13.40;;;8.70;99.90;;;;;;2081323;28;20033;-68
2021/10/10 00:08:10;;;;;;;14.65;12.52;;;8.70;99.90;;;;;;2084120;28;20104;-68
2021/10/10 00:09:10;;;;;;;15.35;13.07;;;8.70;99.90;;;;;;2079226;28;20444;-68
2021/10/10 00:10:14;;;;;;;14.82;12.80;;;8.60;99.90;;;;;;2079803;28;20454;-68
2021/10/10 00:11:14;;;;;;;15.90;12.85;;;8.70;99.90;;;;;;2079409;28;20021;-68
2021/10/10 00:12:15;;;;;;;15.30;12.82;;;8.60;99.90;;;;;;2085239;28;20100;-68
2021/10/10 00:13:16;;;;;;;14.20;11.70;;;8.60;99.90;;;;;;2082525;28;20095;-68
2021/10/10 00:14:17;;;;;;;16.92;12.43;;;8.60;99.90;;;;;;2085712;28;20033;-68
2021/10/10 00:15:17;;;;;;;13.60;12.07;;;8.60;99.90;;;;;;2083564;28;20029;-68
2021/10/10 00:16:18;;;;;;;18.02;13.10;;;8.60;99.90;;;;;;2085561;28;20446;-68
2021/10/10 00:17:18;;;;;;;18.58;13.18;;;8.60;99.90;;;;;;2087256;28;20040;-68
2021/10/10 00:18:19;;;;;;;13.65;12.23;;;8.50;99.90;;;;;;2083432;28;20485;-68
2021/10/10 00:19:20;;;;;;;15.40;12.90;;;8.50;99.90;;;;;;2080756;28;20026;-68
2021/10/10 00:20:21;;;;;;;14.45;11.77;;;8.50;99.90;;;;;;2084319;28;20040;-68
2021/10/10 00:21:21;;;;;;;15.07;12.75;;;8.50;99.90;;;;;;2082463;28;20065;-68
2021/10/10 00:22:22;;;;;;;14.07;12.50;;;8.50;99.90;;;;;;2079478;28;20043;-68
2021/10/10 00:23:22;;;;;;;14.65;12.43;;;8.50;99.90;;;;;;2079412;28;20025;-68
2021/10/10 00:24:23;;;;;;;14.95;12.13;;;8.50;99.90;;;;;;2079434;28;20049;-68
2021/10/10 00:25:24;;;;;;;13.80;12.40;;;8.40;99.90;;;;;;2080140;28;20018;-68
2021/10/10 00:26:24;;;;;;;12.93;11.55;;;8.50;99.90;;;;;;2079679;28;20041;-68
2021/10/10 00:27:25;;;;;;;15.35;12.45;;;8.40;99.90;;;;;;2079565;28;20025;-68
2021/10/10 00:28:25;;;;;;;13.80;12.30;;;8.40;99.90;;;;;;2079084;28;20480;-68
2021/10/10 00:29:26;;;;;;;14.35;12.55;;;8.40;99.90;;;;;;2083047;28;20091;-68
2021/10/10 00:30:26;;;;;;;15.23;12.57;;;8.40;99.90;;;;;;2083273;28;20029;-68
2021/10/10 00:31:27;;;;;;;15.70;12.35;;;8.40;99.90;;;;;;2080993;28;20492;-68
2021/10/10 00:32:28;;;;;;;18.73;13.35;;;8.40;99.90;;;;;;2079509;28;20025;-67
2021/10/10 00:33:28;;;;;;;16.38;12.48;;;8.40;99.90;;;;;;2081760;28;20022;-68
2021/10/10 00:34:29;;;;;;;17.67;12.23;;;8.40;99.90;;;;;;2081612;28;20033;-68
2021/10/10 00:35:30;;;;;;;18.90;13.63;;;8.40;99.90;;;;;;2083883;28;20029;-68
2021/10/10 00:36:30;;;;;;;14.20;11.50;;;8.40;99.90;;;;;;2081618;28;20051;-67
2021/10/10 00:37:31;;;;;;;14.50;11.48;;;8.30;99.90;;;;;;2087177;28;20040;-67
2021/10/10 00:38:31;;;;;;;14.85;12.60;;;8.30;99.90;;;;;;2084950;28;20058;-68
2021/10/10 00:39:32;;;;;;;16.27;12.43;;;8.30;99.90;;;;;;2079316;28;20639;-68
2021/10/10 00:40:33;;;;;;;13.77;12.27;;;8.30;99.90;;;;;;2079642;28;20025;-68
2021/10/10 00:41:36;;;;;;;15.85;13.05;;;8.30;99.90;;;;;;2079787;28;20037;-68
2021/10/10 00:42:37;;;;;;;14.13;12.35;;;8.30;99.90;;;;;;2079336;28;20493;-68
2021/10/10 00:43:37;;;;;;;16.10;12.07;;;8.30;99.90;;;;;;2080468;28;20393;-68
2021/10/10 00:44:38;;;;;;;15.52;12.95;;;8.30;99.90;;;;;;2079685;28;20148;-68
2021/10/10 00:45:45;;;;;;;15.60;12.23;;;8.20;99.90;;;;;;2079690;28;20028;-68
2021/10/10 00:46:46;;;;;;;15.30;12.73;;;8.20;99.90;;;;;;2085495;28;20040;-68
2021/10/10 00:47:47;;;;;;;14.15;12.52;;;8.20;99.90;;;;;;2078719;28;20048;-68
2021/10/10 00:48:47;;;;;;;14.25;12.57;;;8.20;99.90;;;;;;2079833;28;20026;-68
2021/10/10 00:49:48;;;;;;;15.88;13.10;;;8.20;99.90;;;;;;2088935;28;20111;-68
2021/10/10 00:50:48;;;;;;;13.25;11.77;;;8.20;99.90;;;;;;2085173;28;20839;-68
2021/10/10 00:51:51;;;;;;;14.45;12.45;;;8.20;99.90;;;;;;2086573;28;20033;-68
2021/10/10 00:52:53;;;;;;;13.88;11.75;;;8.10;99.90;;;;;;2084422;28;20052;-68
2021/10/10 00:53:54;;;;;;;16.35;11.52;;;8.10;99.90;;;;;;2082898;28;20057;-68
2021/10/10 00:54:56;;;;;;;13.68;12.05;;;8.10;99.90;;;;;;2080849;28;20021;-68
2021/10/10 00:55:58;;;;;;;16.85;13.27;;;8.10;99.90;;;;;;2081399;28;20959;-68
2021/10/10 00:57:00;;;;;;;14.68;12.25;;;8.10;99.90;;;;;;2081148;28;20083;-68
2021/10/10 00:58:02;;;;;;;15.43;13.15;;;8.10;99.90;;;;;;2088546;28;20052;-68
2021/10/10 00:59:04;;;;;;;18.05;12.57;;;8.10;99.90;;;;;;2083594;28;20028;-67
2021/10/10 01:00:08;;;;;;;14.98;12.75;;;8.10;99.90;;;;;;2082601;28;20053;-67
2021/10/10 01:01:08;;;;;;;15.95;13.63;;;8.10;99.90;;;;;;2081623;28;20063;-68
2021/10/10 01:02:09;;;;;;;17.13;13.35;;;8.10;99.90;;;;;;2081558;28;20025;-68
2021/10/10 01:03:09;;;;;;;16.85;13.65;;;8.00;99.90;;;;;;2080487;28;20029;-68
2021/10/10 01:04:10;;;;;;;17.15;13.13;;;8.10;99.90;;;;;;2081102;28;20034;-67
2021/10/10 01:05:13;;;;;;;18.27;13.52;;;8.10;99.90;;;;;;2080731;28;20021;-68
2021/10/10 01:06:15;;;;;;;15.27;13.10;;;8.00;99.90;;;;;;2081187;28;20116;-67
2021/10/10 01:07:18;;;;;;;16.17;12.88;;;8.00;99.90;;;;;;2080635;28;20071;-68
2021/10/10 01:08:19;;;;;;;15.55;12.63;;;8.00;99.90;;;;;;2080531;28;20018;-68
2021/10/10 01:09:20;;;;;;;16.73;12.65;;;8.00;99.90;;;;;;2080760;28;20105;-68
2021/10/10 01:10:20;;;;;;;15.82;12.70;;;8.00;99.90;;;;;;2087576;28;20392;-68
2021/10/10 01:11:25;;;;;;;14.82;12.73;;;8.00;99.90;;;;;;2082964;28;20768;-68
2021/10/10 01:12:26;;;;;;;18.42;13.82;;;7.90;99.90;;;;;;2088629;28;20013;-68
2021/10/10 01:13:26;;;;;;;15.40;12.00;;;8.00;99.90;;;;;;2082433;28;20457;-68
2021/10/10 01:14:27;;;;;;;14.32;12.75;;;7.90;99.90;;;;;;2080877;28;20343;-68
2021/10/10 01:15:28;;;;;;;16.67;13.77;;;7.90;99.90;;;;;;2081908;28;20493;-68
2021/10/10 01:16:29;;;;;;;15.90;13.60;;;7.90;99.90;;;;;;2083427;28;20021;-67
2021/10/10 01:17:29;;;;;;;15.75;13.02;;;7.90;99.90;;;;;;2088945;28;20044;-68
2021/10/10 01:18:30;;;;;;;16.88;13.60;;;7.90;99.90;;;;;;2080298;28;20049;-67
2021/10/10 01:19:32;;;;;;;16.42;12.40;;;7.90;99.90;;;;;;2083009;28;20424;-68
2021/10/10 01:20:43;;;;;;;15.48;12.55;;;7.90;99.90;;;;;;2086750;28;20566;-67
2021/10/10 01:21:44;;;;;;;15.18;12.85;;;7.90;99.90;;;;;;2080797;28;20041;-68
2021/10/10 01:22:45;;;;;;;14.85;12.95;;;7.80;99.90;;;;;;2080822;28;20037;-67
2021/10/10 01:23:45;;;;;;;16.27;13.32;;;7.90;99.90;;;;;;2080222;28;20473;-68
2021/10/10 01:24:47;;;;;;;20.30;14.43;;;7.80;99.90;;;;;;2083181;28;20059;-68
2021/10/10 01:25:47;;;;;;;17.00;13.98;;;7.80;99.90;;;;;;2080776;28;20068;-68
2021/10/10 01:26:48;;;;;;;18.25;13.82;;;7.80;99.90;;;;;;2083753;28;20020;-68
2021/10/10 01:27:49;;;;;;;16.42;12.27;;;7.80;99.90;;;;;;2083792;28;20029;-68
2021/10/10 01:28:50;;;;;;;15.63;12.88;;;7.80;99.90;;;;;;2080287;28;20528;-68
2021/10/10 01:29:51;;;;;;;15.75;12.68;;;7.80;99.90;;;;;;2086687;28;20028;-68
2021/10/10 01:30:51;;;;;;;16.17;13.40;;;7.80;99.90;;;;;;2085291;28;20037;-68
2021/10/10 01:31:52;;;;;;;15.20;13.13;;;7.80;99.90;;;;;;2081056;28;20013;-68
2021/10/10 01:32:56;;;;;;;15.38;13.00;;;7.80;99.90;;;;;;2080668;28;20030;-68
2021/10/10 01:33:57;;;;;;;18.50;13.65;;;7.80;99.90;;;;;;2080955;28;20083;-68
2021/10/10 01:34:57;;;;;;;15.60;13.25;;;7.70;99.90;;;;;;2081254;28;20079;-68
2021/10/10 01:35:58;;;;;;;16.98;14.10;;;7.70;99.90;;;;;;2080960;28;20397;-68
2021/10/10 01:36:59;;;;;;;19.23;14.82;;;7.70;99.90;;;;;;2086210;28;20017;-68
2021/10/10 01:38:00;;;;;;;19.30;13.60;;;7.70;99.90;;;;;;2087042;28;20025;-68
2021/10/10 01:39:01;;;;;;;14.38;12.82;;;7.70;99.90;;;;;;2084194;28;20564;-67
2021/10/10 01:40:01;;;;;;;15.98;13.38;;;7.70;99.90;;;;;;2082620;28;20072;-68
2021/10/10 01:41:03;;;;;;;17.05;13.02;;;7.70;99.90;;;;;;2083472;28;20026;-68
2021/10/10 01:42:04;;;;;;;15.75;13.07;;;7.70;99.90;;;;;;2082891;28;20033;-68
2021/10/10 01:43:05;;;;;;;16.63;13.40;;;7.70;99.90;;;;;;2080565;28;20094;-68
2021/10/10 01:44:12;;;;;;;14.63;12.90;;;7.60;99.90;;;;;;2078505;28;20468;-68
2021/10/10 01:45:19;;;;;;;15.52;13.40;;;7.60;99.90;;;;;;2087392;28;20082;-68
2021/10/10 01:46:19;;;;;;;16.00;13.57;;;7.60;99.90;;;;;;2085384;28;20541;-68
2021/10/10 01:47:20;;;;;;;15.05;13.30;;;7.60;99.90;;;;;;2083342;28;20378;-67
2021/10/10 01:48:20;;;;;;;19.75;14.07;;;7.60;99.90;;;;;;2083867;28;20036;-68
2021/10/10 01:49:22;;;;;;;15.13;13.15;;;7.60;99.90;;;;;;2088500;28;20112;-68
2021/10/10 01:50:22;;;;;;;15.73;12.55;;;7.60;99.90;;;;;;2080642;28;20087;-68
2021/10/10 01:51:23;;;;;;;14.05;12.20;;;7.60;99.90;;;;;;2080909;28;20063;-67
2021/10/10 01:52:24;;;;;;;18.08;12.73;;;7.50;99.90;;;;;;2082881;28;20052;-68
2021/10/10 01:53:24;;;;;;;19.35;13.43;;;7.50;99.90;;;;;;2086651;28;20029;-68
2021/10/10 01:54:25;;;;;;;13.85;12.10;;;7.50;99.90;;;;;;2084302;28;20053;-68
2021/10/10 01:55:25;;;;;;;17.58;13.15;;;7.50;99.90;;;;;;2083589;28;20049;-68
2021/10/10 01:56:27;;;;;;;15.43;12.88;;;7.50;99.90;;;;;;2080475;28;20075;-68
2021/10/10 01:57:27;;;;;;;16.33;13.52;;;7.50;99.90;;;;;;2085265;28;20028;-68
2021/10/10 01:58:28;;;;;;;16.38;13.55;;;7.50;99.90;;;;;;2084146;28;20029;-68
2021/10/10 01:59:28;;;;;;;15.32;13.73;;;7.50;99.90;;;;;;2081555;28;20367;-68
2021/10/10 02:00:29;;;;;;;14.52;12.77;;;7.50;99.90;;;;;;2079256;28;20119;-68
2021/10/10 02:01:30;;;;;;;18.27;13.40;;;7.40;99.90;;;;;;2085126;28;20099;-68
2021/10/10 02:02:30;;;;;;;15.75;12.60;;;7.40;99.90;;;;;;2080363;28;20041;-68
2021/10/10 02:03:31;;;;;;;17.58;13.20;;;7.40;99.90;;;;;;2081492;28;20072;-68
2021/10/10 02:04:31;;;;;;;16.25;13.65;;;7.40;99.90;;;;;;2086981;28;20029;-68
2021/10/10 02:05:32;;;;;;;15.52;13.57;;;7.40;99.90;;;;;;2080668;28;20025;-68
2021/10/10 02:06:33;;;;;;;17.52;14.00;;;7.40;99.90;;;;;;2080367;28;20025;-68
2021/10/10 02:07:33;;;;;;;18.77;13.43;;;7.40;99.90;;;;;;2080382;28;20408;-68
2021/10/10 02:08:34;;;;;;;19.75;13.70;;;7.40;99.90;;;;;;2080993;28;20034;-68
2021/10/10 02:09:36;;;;;;;15.77;13.60;;;7.40;99.90;;;;;;2080578;28;20131;-68
2021/10/10 02:10:37;;;;;;;15.25;12.52;;;7.40;99.90;;;;;;2087226;28;20491;-68
2021/10/10 02:11:37;;;;;;;15.88;13.23;;;7.40;99.90;;;;;;2087087;28;20424;-68
2021/10/10 02:12:38;;;;;;;16.77;12.73;;;7.40;99.90;;;;;;2088439;28;20040;-68
2021/10/10 02:13:39;;;;;;;16.65;13.75;;;7.40;99.90;;;;;;2080480;28;20032;-68
2021/10/10 02:14:40;;;;;;;15.95;12.13;;;7.40;99.90;;;;;;2082924;28;20033;-68
2021/10/10 02:15:40;;;;;;;17.55;13.77;;;7.30;99.90;;;;;;2080373;28;20698;-68
2021/10/10 02:16:41;;;;;;;20.42;14.18;;;7.30;99.90;;;;;;2086960;28;20036;-68
2021/10/10 02:17:41;;;;;;;17.67;13.98;;;7.30;99.90;;;;;;2086923;28;20460;-68
2021/10/10 02:18:42;;;;;;;15.93;12.77;;;7.30;99.90;;;;;;2087457;28;20103;-68
2021/10/10 02:19:43;;;;;;;16.40;12.73;;;7.30;99.90;;;;;;2086959;28;20033;-68
2021/10/10 02:20:43;;;;;;;15.02;13.15;;;7.30;99.90;;;;;;2081244;28;20057;-68
2021/10/10 02:21:44;;;;;;;15.80;12.98;;;7.30;99.90;;;;;;2088688;28;20024;-68
2021/10/10 02:22:45;;;;;;;16.88;13.75;;;7.30;99.90;;;;;;2085340;28;20073;-68
2021/10/10 02:23:45;;;;;;;18.55;14.10;;;7.30;99.90;;;;;;2084623;28;20048;-68
2021/10/10 02:24:46;;;;;;;18.55;13.93;;;7.30;99.90;;;;;;2086356;28;20428;-68
2021/10/10 02:25:46;;;;;;;19.35;13.63;;;7.30;99.90;;;;;;2086831;28;20111;-68
2021/10/10 02:26:47;;;;;;;18.45;13.77;;;7.30;99.90;;;;;;2080505;28;20025;-68
2021/10/10 02:27:48;;;;;;;19.83;13.45;;;7.20;99.90;;;;;;2082956;28;20083;-67
2021/10/10 02:28:49;;;;;;;14.73;12.80;;;7.20;99.90;;;;;;2079888;28;20017;-68
2021/10/10 02:29:49;;;;;;;17.90;14.02;;;7.20;99.90;;;;;;2079673;28;20040;-68
2021/10/10 02:30:50;;;;;;;16.98;13.70;;;7.20;99.90;;;;;;2080634;28;20454;-68
2021/10/10 02:31:51;;;;;;;15.00;12.52;;;7.20;99.90;;;;;;2080449;28;20033;-68
2021/10/10 02:32:51;;;;;;;16.08;13.10;;;7.20;99.90;;;;;;2080638;28;20108;-68
2021/10/10 02:33:52;;;;;;;16.50;13.23;;;7.20;99.90;;;;;;2080050;28;20413;-68
2021/10/10 02:34:52;;;;;;;16.00;13.60;;;7.20;99.90;;;;;;2082351;28;20029;-68
2021/10/10 02:35:53;;;;;;;15.68;13.20;;;7.20;99.90;;;;;;2081983;28;20417;-68
2021/10/10 02:36:53;;;;;;;19.27;14.10;;;7.20;99.90;;;;;;2084914;28;20458;-68
2021/10/10 02:37:54;;;;;;;15.30;13.00;;;7.20;99.90;;;;;;2085013;28;20025;-68
2021/10/10 02:38:54;;;;;;;17.88;12.90;;;7.20;99.90;;;;;;2084654;28;20496;-68
2021/10/10 02:39:55;;;;;;;16.95;13.82;;;7.20;99.90;;;;;;2081295;28;20128;-68
2021/10/10 02:40:56;;;;;;;14.43;12.52;;;7.20;99.90;;;;;;2079937;28;20036;-68
2021/10/10 02:41:56;;;;;;;17.35;13.18;;;7.10;99.90;;;;;;2084648;28;20032;-68
2021/10/10 02:42:57;;;;;;;17.65;13.50;;;7.20;99.90;;;;;;2081269;28;20090;-67
2021/10/10 02:43:58;;;;;;;15.55;13.68;;;7.10;99.90;;;;;;2083843;28;20025;-68
2021/10/10 02:44:58;;;;;;;16.20;13.20;;;7.10;99.90;;;;;;2088110;28;20017;-68
2021/10/10 02:45:59;;;;;;;16.98;12.93;;;7.10;99.90;;;;;;2086956;28;20100;-68
2021/10/10 02:47:00;;;;;;;21.60;13.30;;;7.10;99.90;;;;;;2085588;28;20033;-67
2021/10/10 02:48:01;;;;;;;18.20;13.30;;;7.10;99.90;;;;;;2080395;28;20037;-68
2021/10/10 02:49:02;;;;;;;17.10;13.63;;;7.10;99.90;;;;;;2080391;28;20064;-68
2021/10/10 02:50:05;;;;;;;18.15;13.32;;;7.10;99.90;;;;;;2082424;28;20026;-68
2021/10/10 02:51:05;;;;;;;20.23;14.13;;;7.10;99.90;;;;;;2085172;28;20021;-68
2021/10/10 02:52:06;;;;;;;15.25;12.57;;;7.10;99.90;;;;;;2085021;28;20440;-68
2021/10/10 02:53:06;;;;;;;16.10;12.40;;;7.10;99.90;;;;;;2089329;28;20108;-68
2021/10/10 02:54:07;;;;;;;17.13;13.43;;;7.10;99.90;;;;;;2093524;28;20025;-68
2021/10/10 02:55:08;;;;;;;13.65;11.25;;;7.00;99.90;;;;;;2084939;28;20694;-68
2021/10/10 02:56:08;;;;;;;15.40;12.82;;;7.00;99.90;;;;;;2080126;28;20347;-68
2021/10/10 02:57:11;;;;;;;15.77;12.35;;;7.00;99.90;;;;;;2084832;28;20077;-68
2021/10/10 02:58:11;;;;;;;16.52;12.52;;;7.00;99.90;;;;;;2086534;28;20025;-68
2021/10/10 02:59:12;;;;;;;14.00;12.43;;;7.00;99.90;;;;;;2084833;28;20013;-68
2021/10/10 03:00:12;;;;;;;15.75;12.77;;;7.00;99.90;;;;;;2083314;28;20021;-68
2021/10/10 03:01:13;;;;;;;16.98;13.07;;;7.00;99.90;;;;;;2079605;28;20017;-68
2021/10/10 03:02:14;;;;;;;15.90;12.93;;;7.00;99.90;;;;;;2085580;28;20028;-68
2021/10/10 03:03:14;;;;;;;16.60;12.75;;;7.00;99.90;;;;;;2085012;28;20026;-68
2021/10/10 03:04:15;;;;;;;17.13;12.73;;;7.00;99.90;;;;;;2081367;28;20371;-68
2021/10/10 03:05:15;;;;;;;14.93;13.35;;;7.00;99.90;;;;;;2084378;28;20029;-68
2021/10/10 03:06:16;;;;;;;15.55;12.88;;;7.00;99.90;;;;;;2081157;28;20018;-68
2021/10/10 03:07:16;;;;;;;16.20;12.98;;;7.00;99.90;;;;;;2088298;28;20029;-70
2021/10/10 03:08:17;;;;;;;13.98;12.20;;;7.00;99.90;;;;;;2083182;28;20445;-68
2021/10/10 03:09:18;;;;;;;15.10;12.88;;;7.00;99.90;;;;;;2079741;28;20049;-68
2021/10/10 03:10:18;;;;;;;16.20;13.38;;;7.00;99.90;;;;;;2084179;28;20028;-68
2021/10/10 03:11:19;;;;;;;14.68;12.55;;;7.00;99.90;;;;;;2086532;28;20022;-68
2021/10/10 03:12:19;;;;;;;16.52;13.55;;;6.90;99.90;;;;;;2087653;28;20079;-68
2021/10/10 03:13:20;;;;;;;17.02;12.30;;;6.90;99.90;;;;;;2088356;28;20479;-68
2021/10/10 03:14:20;;;;;;;15.95;12.57;;;6.90;99.90;;;;;;2083712;28;20066;-68
2021/10/10 03:15:21;;;;;;;14.93;13.07;;;6.90;99.90;;;;;;2079762;28;20057;-68
2021/10/10 03:16:21;;;;;;;15.82;12.27;;;6.90;99.90;;;;;;2081566;28;20026;-68
2021/10/10 03:17:22;;;;;;;20.40;14.05;;;6.90;99.90;;;;;;2088171;28;20057;-68
2021/10/10 03:18:23;;;;;;;16.10;12.95;;;6.90;99.90;;;;;;2079869;28;20087;-68
2021/10/10 03:19:24;;;;;;;20.80;14.80;;;6.90;99.90;;;;;;2083957;28;20087;-68
2021/10/10 03:20:24;;;;;;;16.17;13.82;;;6.90;99.90;;;;;;2088103;28;20477;-68
2021/10/10 03:21:25;;;;;;;17.35;13.18;;;6.90;99.90;;;;;;2082346;28;20032;-68
2021/10/10 03:22:26;;;;;;;17.00;13.60;;;6.90;99.90;;;;;;2079959;28;20024;-68
2021/10/10 03:23:26;;;;;;;16.30;12.70;;;6.90;99.90;;;;;;2079999;28;20033;-68
2021/10/10 03:24:27;;;;;;;16.88;13.43;;;6.80;99.90;;;;;;2084541;28;20029;-68
2021/10/10 03:25:27;;;;;;;15.73;12.73;;;6.80;99.90;;;;;;2087549;28;20021;-68
2021/10/10 03:26:28;;;;;;;16.55;12.82;;;6.80;99.90;;;;;;2080381;28;20023;-68
2021/10/10 03:27:28;;;;;;;16.23;12.57;;;6.80;99.90;;;;;;2085662;28;20056;-68
2021/10/10 03:28:29;;;;;;;17.63;13.35;;;6.80;99.90;;;;;;2079384;28;20128;-68
2021/10/10 03:29:30;;;;;;;15.85;13.20;;;6.80;99.90;;;;;;2081326;28;20350;-68
2021/10/10 03:30:30;;;;;;;15.48;12.80;;;6.80;99.90;;;;;;2086737;28;20066;-68
2021/10/10 03:31:31;;;;;;;16.02;13.15;;;6.80;99.90;;;;;;2079915;28;20488;-68
2021/10/10 03:32:32;;;;;;;17.65;13.07;;;6.80;99.90;;;;;;2079827;28;20049;-68
2021/10/10 03:33:32;;;;;;;18.13;14.07;;;6.80;99.90;;;;;;2080447;28;20052;-68
2021/10/10 03:34:33;;;;;;;15.50;12.98;;;6.80;99.90;;;;;;2083080;28;20060;-68
2021/10/10 03:35:34;;;;;;;16.67;13.52;;;6.80;99.90;;;;;;2085504;28;20064;-68
2021/10/10 03:36:35;;;;;;;18.13;13.43;;;6.80;99.90;;;;;;2082692;28;20071;-68
2021/10/10 03:37:35;;;;;;;17.77;13.65;;;6.80;99.90;;;;;;2084961;28;20124;-68
2021/10/10 03:38:36;;;;;;;18.80;14.02;;;6.80;99.90;;;;;;2086189;28;20484;-68
2021/10/10 03:39:36;;;;;;;15.50;13.68;;;6.80;99.90;;;;;;2083406;28;20448;-68
2021/10/10 03:40:37;;;;;;;15.43;12.95;;;6.80;99.90;;;;;;2080667;28;20071;-68
2021/10/10 03:41:37;;;;;;;18.33;12.85;;;6.80;99.90;;;;;;2081952;28;20048;-68
2021/10/10 03:42:39;;;;;;;16.17;13.25;;;6.80;99.90;;;;;;2080980;28;20030;-68
2021/10/10 03:43:40;;;;;;;15.23;12.88;;;6.80;99.90;;;;;;2079991;28;20029;-68
2021/10/10 03:44:40;;;;;;;17.33;13.00;;;6.70;99.90;;;;;;2086741;28;20039;-68
2021/10/10 03:45:41;;;;;;;20.30;13.85;;;6.80;99.90;;;;;;2086098;28;20044;-68
2021/10/10 03:46:41;;;;;;;18.75;13.40;;;6.80;99.90;;;;;;2086824;28;20067;-68
2021/10/10 03:47:42;;;;;;;18.10;13.68;;;6.70;99.90;;;;;;2080685;28;20049;-69
2021/10/10 03:48:42;;;;;;;15.50;13.30;;;6.70;99.90;;;;;;2083441;28;20037;-68
2021/10/10 03:49:43;;;;;;;16.17;13.57;;;6.70;99.90;;;;;;2083788;28;20029;-68
2021/10/10 03:50:43;;;;;;;17.52;12.95;;;6.80;99.90;;;;;;2079741;28;20101;-68
2021/10/10 03:51:44;;;;;;;17.45;12.95;;;6.70;99.90;;;;;;2079695;28;20026;-68
2021/10/10 03:52:45;;;;;;;15.00;12.65;;;6.70;99.90;;;;;;2079647;28;20025;-68
2021/10/10 03:56:14;;;;;;;17.33;13.30;;;6.70;99.90;;;;;;2080153;28;20044;-68
2021/10/10 03:57:20;;;;;;;16.75;12.93;;;6.70;99.90;;;;;;2083511;28;20048;-68
2021/10/10 03:58:21;;;;;;;18.17;12.93;;;6.70;99.90;;;;;;2085210;28;20443;-68
2021/10/10 03:59:23;;;;;;;16.92;12.98;;;6.70;99.90;;;;;;2085555;28;20025;-68
2021/10/10 04:00:25;;;;;;;18.65;13.75;;;6.70;99.90;;;;;;2087073;28;20507;-68
2021/10/10 04:01:27;;;;;;;15.60;12.77;;;6.70;99.90;;;;;;2084657;28;20032;-68
2021/10/10 04:02:28;;;;;;;18.27;12.88;;;6.70;99.90;;;;;;2085281;28;20029;-68
2021/10/10 04:03:28;;;;;;;16.60;12.57;;;6.70;99.90;;;;;;2083338;28;20060;-68
2021/10/10 04:04:30;;;;;;;15.50;12.75;;;6.70;99.90;;;;;;2079960;28;20029;-68
2021/10/10 04:06:33;;;;;;;17.08;13.00;;;6.70;99.90;;;;;;2084296;28;20026;-68
2021/10/10 04:07:33;;;;;;;17.23;14.07;;;6.70;99.90;;;;;;2079649;28;20025;-68
2021/10/10 04:08:34;;;;;;;15.73;13.45;;;6.70;99.90;;;;;;2079043;28;20033;-68
2021/10/10 04:09:34;;;;;;;15.77;13.70;;;6.70;99.90;;;;;;2079637;28;20112;-68
2021/10/10 04:10:35;;;;;;;16.38;12.68;;;6.70;99.90;;;;;;2079722;28;20380;-68
2021/10/10 04:11:35;;;;;;;15.68;12.82;;;6.70;99.90;;;;;;2084502;28;20021;-68
2021/10/10 04:12:36;;;;;;;17.08;13.18;;;6.70;99.90;;;;;;2087816;28;20040;-68
2021/10/10 04:13:40;;;;;;;14.07;12.63;;;6.70;99.90;;;;;;2082736;28;20037;-68
2021/10/10 04:14:40;;;;;;;18.67;12.85;;;6.70;99.90;;;;;;2084483;28;20422;-68
2021/10/10 04:15:41;;;;;;;16.35;13.20;;;6.70;99.90;;;;;;2087353;28;20059;-68
2021/10/10 04:16:41;;;;;;;16.67;13.60;;;6.60;99.90;;;;;;2087194;28;20025;-68
2021/10/10 04:17:43;;;;;;;18.60;13.18;;;6.70;99.90;;;;;;2086026;28;20707;-70
2021/10/10 04:18:44;;;;;;;15.30;12.43;;;6.70;99.90;;;;;;2079021;28;20018;-70
2021/10/10 04:19:44;;;;;;;17.10;13.98;;;6.60;99.90;;;;;;2081704;28;20029;-70
2021/10/10 04:20:45;;;;;;;19.08;13.00;;;6.60;99.90;;;;;;2081524;28;20033;-70
2021/10/10 04:21:45;;;;;;;18.45;12.95;;;6.60;99.90;;;;;;2079813;28;20030;-70
2021/10/10 04:22:46;;;;;;;17.92;13.05;;;6.60;99.90;;;;;;2079588;28;20072;-69
2021/10/10 04:23:47;;;;;;;16.33;13.05;;;6.60;99.90;;;;;;2086442;28;20492;-70
2021/10/10 04:24:48;;;;;;;16.45;12.40;;;6.70;99.90;;;;;;2087575;28;20428;-70
2021/10/10 04:25:48;;;;;;;16.08;13.05;;;6.60;99.90;;;;;;2081075;28;20396;-70
2021/10/10 04:26:49;;;;;;;18.00;12.77;;;6.60;99.90;;;;;;2081301;28;20025;-70
2021/10/10 04:27:50;;;;;;;14.70;13.02;;;6.60;99.90;;;;;;2081244;28;20501;-70
2021/10/10 04:28:50;;;;;;;15.60;12.43;;;6.70;99.90;;;;;;2080043;28;20036;-70
2021/10/10 04:29:51;;;;;;;19.98;14.65;;;6.60;99.90;;;;;;2081216;28;20121;-70
2021/10/10 04:30:52;;;;;;;14.77;12.55;;;6.60;99.90;;;;;;2083325;28;20037;-69
2021/10/10 04:31:52;;;;;;;17.55;12.82;;;6.60;99.90;;;;;;2085364;28;20087;-70
2021/10/10 04:32:53;;;;;;;14.45;12.43;;;6.60;99.90;;;;;;2081706;28;20156;-70
2021/10/10 04:33:53;;;;;;;18.77;13.32;;;6.60;99.90;;;;;;2080739;28;20034;-70
2021/10/10 04:34:54;;;;;;;18.90;13.05;;;6.60;99.90;;;;;;2081883;28;20048;-70
2021/10/10 04:35:54;;;;;;;15.18;11.90;;;6.60;99.90;;;;;;2084557;28;20548;-69
2021/10/10 04:36:55;;;;;;;18.90;14.00;;;6.60;99.90;;;;;;2085943;28;20013;-70
2021/10/10 04:37:55;;;;;;;16.52;13.90;;;6.60;99.90;;;;;;2086475;28;20052;-70
2021/10/10 04:38:56;;;;;;;15.32;13.70;;;6.60;99.90;;;;;;2087704;28;20048;-70
2021/10/10 04:39:57;;;;;;;16.08;11.80;;;6.60;99.90;;;;;;2087680;28;20507;-70
2021/10/10 04:40:57;;;;;;;15.73;13.18;;;6.60;99.90;;;;;;2080845;28;20038;-70
2021/10/10 04:41:58;;;;;;;17.23;12.90;;;6.60;99.90;;;;;;2081251;28;20072;-69
2021/10/10 04:42:58;;;;;;;16.05;13.75;;;6.60;99.90;;;;;;2083980;28;20075;-70
2021/10/10 04:43:59;;;;;;;17.05;12.63;;;6.60;99.90;;;;;;2085058;28;20030;-70
2021/10/10 04:45:00;;;;;;;14.20;12.25;;;6.60;99.90;;;;;;2085565;28;20078;-70
2021/10/10 04:46:00;;;;;;;14.90;11.70;;;6.60;99.90;;;;;;2081624;28;20038;-69
2021/10/10 04:47:02;;;;;;;15.13;12.20;;;6.60;99.90;;;;;;2080550;28;20080;-69
2021/10/10 04:48:03;;;;;;;14.45;11.52;;;6.60;99.90;;;;;;2080853;28;20432;-70
2021/10/10 04:49:03;;;;;;;13.63;11.88;;;6.60;99.90;;;;;;2086513;28;20052;-70
2021/10/10 04:50:04;;;;;;;16.90;12.48;;;6.60;99.90;;;;;;2086536;28;20077;-70
2021/10/10 04:51:05;;;;;;;15.88;12.57;;;6.60;99.90;;;;;;2081222;28;20025;-69
2021/10/10 04:52:06;;;;;;;14.45;12.20;;;6.60;99.90;;;;;;2080955;28;20100;-69
2021/10/10 04:53:06;;;;;;;14.25;12.13;;;6.60;99.90;;;;;;2080759;28;20105;-69
2021/10/10 04:54:07;;;;;;;15.38;11.70;;;6.60;99.90;;;;;;2087640;28;20406;-69
2021/10/10 04:55:08;;;;;;;13.80;11.77;;;6.50;99.90;;;;;;2086060;28;20029;-70
2021/10/10 04:56:08;;;;;;;15.45;12.43;;;6.50;99.90;;;;;;2087769;28;20024;-69
2021/10/10 04:57:09;;;;;;;13.85;11.63;;;6.50;99.90;;;;;;2084573;28;20021;-69
2021/10/10 04:58:09;;;;;;;15.82;12.88;;;6.50;99.90;;;;;;2086653;28;20029;-69
2021/10/10 04:59:10;;;;;;;15.43;11.98;;;6.50;99.90;;;;;;2086122;28;20091;-69
2021/10/10 05:00:11;;;;;;;14.43;11.98;;;6.50;99.90;;;;;;2084521;28;20022;-69
2021/10/10 05:01:12;;;;;;;13.88;11.32;;;6.50;99.90;;;;;;2081081;28;20118;-69
2021/10/10 05:02:13;;;;;;;14.13;11.65;;;6.50;99.90;;;;;;2085551;28;20021;-69
2021/10/10 05:03:13;;;;;;;13.40;11.68;;;6.50;99.90;;;;;;2080914;28;20035;-69
2021/10/10 05:04:14;;;;;;;15.43;11.82;;;6.50;99.90;;;;;;2080986;28;20017;-69
2021/10/10 05:05:14;;;;;;;13.65;11.48;;;6.50;99.90;;;;;;2082048;28;20052;-69
2021/10/10 05:06:15;;;;;;;12.85;11.30;;;6.50;99.90;;;;;;2080808;28;20025;-69
2021/10/10 05:07:19;;;;;;;17.20;12.23;;;6.50;99.90;;;;;;2081216;28;20017;-69
2021/10/10 05:08:20;;;;;;;12.48;11.18;;;6.50;99.90;;;;;;2080126;28;20029;-69
2021/10/10 05:09:20;;;;;;;13.90;11.38;;;6.50;99.90;;;;;;2080914;28;21089;-69
2021/10/10 05:10:21;;;;;;;13.60;12.07;;;6.50;99.90;;;;;;2085523;28;20385;-69
2021/10/10 05:11:21;;;;;;;17.13;12.93;;;6.50;99.90;;;;;;2087667;28;20054;-69
2021/10/10 05:12:22;;;;;;;17.70;12.48;;;6.50;99.90;;;;;;2088394;28;20021;-69
2021/10/10 05:13:22;;;;;;;15.43;12.48;;;6.40;99.90;;;;;;2081369;28;20350;-69
2021/10/10 05:14:23;;;;;;;15.75;12.15;;;6.50;99.90;;;;;;2083825;28;20092;-69
2021/10/10 05:15:23;;;;;;;16.02;11.50;;;6.40;99.90;;;;;;2082660;28;20602;-69